createdAt,value
2018-06-24T00:02:09.366Z,86.10
2018-06-24T00:04:37.951Z,85.60
2018-06-24T00:07:06.534Z,86.10
2018-06-24T00:09:35.093Z,86.40
2018-06-24T00:12:03.673Z,86.60
2018-06-24T00:14:32.279Z,86.80
2018-06-24T00:17:00.864Z,86.40
2018-06-24T00:19:29.472Z,85.90
2018-06-24T00:21:58.107Z,85.90
2018-06-24T00:29:23.562Z,87.20
2018-06-24T00:34:20.467Z,89.70
2018-06-24T00:36:49.044Z,90.00
2018-06-24T00:41:45.826Z,88.90
2018-06-24T00:44:14.875Z,88.80
2018-06-24T00:46:44.073Z,89.90
2018-06-24T00:49:12.637Z,90.10
2018-06-24T00:51:41.900Z,90.50
2018-06-24T00:54:10.565Z,90.70
2018-06-24T00:56:39.124Z,90.60
2018-06-24T00:59:09.184Z,90.60
2018-06-24T01:01:38.220Z,90.30
2018-06-24T01:04:06.785Z,89.60
2018-06-24T01:06:35.883Z,89.30
2018-06-24T01:09:05.651Z,88.70
2018-06-24T01:11:34.190Z,88.50
2018-06-24T01:14:03.692Z,88.30
2018-06-24T01:16:31.442Z,88.00
2018-06-24T01:19:00.031Z,87.70
2018-06-24T01:21:31.278Z,87.50
2018-06-24T01:24:02.734Z,87.10
2018-06-24T01:26:31.367Z,87.10
2018-06-24T01:28:59.959Z,87.00
2018-06-24T01:31:28.527Z,86.80
2018-06-24T01:33:57.099Z,86.70
2018-06-24T01:36:25.825Z,87.30
2018-06-24T01:38:54.446Z,86.40
2018-06-24T01:41:23.012Z,86.40
2018-06-24T01:43:51.653Z,85.80
2018-06-24T01:46:20.247Z,85.80
2018-06-24T01:48:49.270Z,85.60
2018-06-24T01:51:17.874Z,85.30
2018-06-24T01:53:46.465Z,85.00
2018-06-24T01:56:14.993Z,84.40
2018-06-24T01:58:43.621Z,84.10
2018-06-24T02:01:12.214Z,83.90
2018-06-24T02:03:41.090Z,83.80
2018-06-24T02:06:09.671Z,83.70
2018-06-24T02:08:38.250Z,83.80
2018-06-24T02:11:06.963Z,84.60
2018-06-24T02:13:35.624Z,84.70
2018-06-24T02:16:04.208Z,84.90
2018-06-24T02:18:32.760Z,84.60
2018-06-24T02:21:01.485Z,84.60
2018-06-24T02:23:30.103Z,84.20
2018-06-24T02:25:58.631Z,84.40
2018-06-24T02:28:27.206Z,84.20
2018-06-24T02:30:55.795Z,83.70
2018-06-24T02:33:24.371Z,83.90
2018-06-24T02:35:52.945Z,84.00
2018-06-24T02:38:21.535Z,84.50
2018-06-24T02:40:50.087Z,84.40
2018-06-24T02:43:18.661Z,84.60
2018-06-24T02:45:47.222Z,84.70
2018-06-24T02:48:16.026Z,87.50
2018-06-24T02:50:44.621Z,88.30
2018-06-24T02:53:13.216Z,87.80
2018-06-24T02:55:41.799Z,89.30
2018-06-24T02:58:10.373Z,90.00
2018-06-24T03:00:38.968Z,90.50
2018-06-24T03:03:11.570Z,91.10
2018-06-24T03:05:40.665Z,90.70
2018-06-24T03:08:09.222Z,90.70
2018-06-24T03:10:38.045Z,91.00
2018-06-24T03:13:06.620Z,90.60
2018-06-24T03:15:35.205Z,90.70
2018-06-24T03:18:03.816Z,90.60
2018-06-24T03:20:32.369Z,90.60
2018-06-24T03:23:00.983Z,90.10
2018-06-24T03:25:29.553Z,89.90
2018-06-24T03:27:58.131Z,88.90
2018-06-24T03:30:26.695Z,88.40
2018-06-24T03:32:55.433Z,87.20
2018-06-24T03:35:24.012Z,86.90
2018-06-24T03:37:52.561Z,87.50
2018-06-24T03:40:21.835Z,86.40
2018-06-24T03:42:50.439Z,86.50
2018-06-24T03:45:19.008Z,86.60
2018-06-24T03:47:47.575Z,86.30
2018-06-24T03:50:16.975Z,86.00
2018-06-24T03:52:45.544Z,86.20
2018-06-24T03:55:15.040Z,85.30
2018-06-24T03:57:43.596Z,85.40
2018-06-24T04:00:12.171Z,85.40
2018-06-24T04:02:41.340Z,85.60
2018-06-24T04:05:09.917Z,85.30
2018-06-24T04:07:38.461Z,84.80
2018-06-24T04:10:07.025Z,84.90
2018-06-24T04:12:35.577Z,84.30
2018-06-24T04:15:04.660Z,84.00
2018-06-24T04:17:33.202Z,83.90
2018-06-24T04:20:01.792Z,84.40
2018-06-24T04:22:30.355Z,84.10
2018-06-24T04:24:58.915Z,84.00
2018-06-24T04:27:27.491Z,83.90
2018-06-24T04:29:56.042Z,84.50
2018-06-24T04:32:24.623Z,83.90
2018-06-24T04:34:54.168Z,83.60
2018-06-24T04:37:22.727Z,84.60
2018-06-24T04:39:52.109Z,83.90
2018-06-24T04:42:20.637Z,84.10
2018-06-24T04:44:49.240Z,83.40
2018-06-24T04:47:17.790Z,83.20
2018-06-24T04:49:46.375Z,83.40
2018-06-24T04:52:15.870Z,82.90
2018-06-24T04:54:44.461Z,83.70
2018-06-24T04:57:13.066Z,84.10
2018-06-24T04:59:41.697Z,84.40
2018-06-24T05:02:10.307Z,84.50
2018-06-24T05:04:38.900Z,84.10
2018-06-24T05:07:08.133Z,83.30
2018-06-24T05:09:36.764Z,84.10
2018-06-24T05:12:05.372Z,85.00
2018-06-24T05:14:33.919Z,84.80
2018-06-24T05:17:02.506Z,84.20
2018-06-24T05:19:31.156Z,83.00
2018-06-24T05:22:06.758Z,82.90
2018-06-24T05:24:35.330Z,82.40
2018-06-24T05:27:03.930Z,82.10
2018-06-24T05:29:33.077Z,83.40
2018-06-24T05:32:01.639Z,81.70
2018-06-24T05:34:30.842Z,81.10
2018-06-24T05:36:59.453Z,81.90
2018-06-24T05:39:28.218Z,81.10
2018-06-24T05:41:56.810Z,81.40
2018-06-24T05:44:25.392Z,80.70
2018-06-24T05:46:53.958Z,80.40
2018-06-24T05:49:22.532Z,80.50
2018-06-24T05:51:51.093Z,81.10
2018-06-24T05:54:19.688Z,79.00
2018-06-24T05:56:48.312Z,78.40
2018-06-24T05:59:16.880Z,78.20
2018-06-24T06:01:45.465Z,77.70
2018-06-24T06:04:14.085Z,77.30
2018-06-24T06:06:42.669Z,77.60
2018-06-24T06:09:12.601Z,78.20
2018-06-24T06:11:41.431Z,78.90
2018-06-24T06:14:09.991Z,79.10
2018-06-24T06:16:38.856Z,79.00
2018-06-24T06:19:07.427Z,78.80
2018-06-24T06:21:36.042Z,78.80
2018-06-24T06:24:04.695Z,78.30
2018-06-24T06:26:33.261Z,78.10
2018-06-24T06:29:01.948Z,77.50
2018-06-24T06:31:30.513Z,77.30
2018-06-24T06:33:59.512Z,78.20
2018-06-24T06:36:28.414Z,77.80
2018-06-24T06:38:57.170Z,78.60
2018-06-24T06:41:25.719Z,79.60
2018-06-24T06:43:54.306Z,78.50
2018-06-24T06:46:22.907Z,78.30
2018-06-24T06:48:51.475Z,77.60
2018-06-24T06:51:20.027Z,77.60
2018-06-24T06:53:49.594Z,77.40
2018-06-24T06:56:18.218Z,78.10
2018-06-24T06:58:46.794Z,78.00
2018-06-24T07:01:15.329Z,78.90
2018-06-24T07:03:44.171Z,77.90
2018-06-24T07:06:12.739Z,77.80
2018-06-24T07:08:41.322Z,77.70
2018-06-24T07:11:09.923Z,77.30
2018-06-24T07:13:38.466Z,77.30
2018-06-24T07:16:07.023Z,77.90
2018-06-24T07:18:35.577Z,78.30
2018-06-24T07:21:07.269Z,77.00
2018-06-24T07:23:35.839Z,77.90
2018-06-24T07:26:04.706Z,76.00
2018-06-24T07:28:33.243Z,76.30
2018-06-24T07:31:01.822Z,76.50
2018-06-24T07:33:30.452Z,77.40
2018-06-24T07:35:59.035Z,75.70
2018-06-24T07:38:27.611Z,75.90
2018-06-24T07:40:56.155Z,76.80
2018-06-24T07:43:24.774Z,76.30
2018-06-24T07:45:53.929Z,76.30
2018-06-24T07:48:22.531Z,75.30
2018-06-24T07:50:51.100Z,74.10
2018-06-24T07:53:19.709Z,73.10
2018-06-24T07:55:48.815Z,73.90
2018-06-24T07:58:17.408Z,73.40
2018-06-24T08:00:45.993Z,73.00
2018-06-24T08:03:14.712Z,73.50
2018-06-24T08:05:43.267Z,73.00
2018-06-24T08:08:12.387Z,71.50
2018-06-24T08:10:41.817Z,72.50
2018-06-24T08:13:10.388Z,72.30
2018-06-24T08:15:38.949Z,73.70
2018-06-24T08:18:08.255Z,72.80
2018-06-24T08:20:36.839Z,73.80
2018-06-24T08:23:05.449Z,71.70
2018-06-24T08:25:34.018Z,74.00
2018-06-24T08:28:02.606Z,71.60
2018-06-24T08:30:31.540Z,70.90
2018-06-24T08:33:00.101Z,70.60
2018-06-24T08:35:28.643Z,69.00
2018-06-24T08:37:57.190Z,70.70
2018-06-24T08:40:25.727Z,69.30
2018-06-24T08:42:54.294Z,69.70
2018-06-24T08:45:22.834Z,68.00
2018-06-24T08:47:51.487Z,69.00
2018-06-24T08:50:20.060Z,68.00
2018-06-24T08:52:48.650Z,67.10
2018-06-24T08:55:17.326Z,68.30
2018-06-24T08:57:46.879Z,69.50
2018-06-24T09:00:15.427Z,68.30
2018-06-24T09:02:44.060Z,67.60
2018-06-24T09:05:12.615Z,67.20
2018-06-24T09:07:41.232Z,66.50
2018-06-24T09:10:10.027Z,66.30
2018-06-24T09:12:38.774Z,65.80
2018-06-24T09:15:07.927Z,66.50
2018-06-24T09:17:36.534Z,66.30
2018-06-24T09:20:05.661Z,67.00
2018-06-24T09:22:34.214Z,66.70
2018-06-24T09:25:03.139Z,65.20
2018-06-24T09:27:31.915Z,66.20
2018-06-24T09:30:00.516Z,64.40
2018-06-24T09:32:29.157Z,63.70
2018-06-24T09:34:58.666Z,62.50
2018-06-24T09:37:27.200Z,63.40
2018-06-24T09:39:55.769Z,63.40
2018-06-24T09:42:24.341Z,63.70
2018-06-24T09:47:21.972Z,65.80
2018-06-24T09:49:50.591Z,66.00
2018-06-24T09:52:19.186Z,62.90
2018-06-24T09:54:50.971Z,63.90
2018-06-24T09:57:19.598Z,63.90
2018-06-24T09:59:48.829Z,63.60
2018-06-24T10:02:17.493Z,63.30
2018-06-24T10:04:46.024Z,61.80
2018-06-24T10:07:14.620Z,61.40
2018-06-24T10:09:43.452Z,63.00
2018-06-24T10:12:12.044Z,63.10
2018-06-24T10:14:40.635Z,60.30
2018-06-24T10:17:09.848Z,60.00
2018-06-24T10:19:38.461Z,60.50
2018-06-24T10:22:07.041Z,60.60
2018-06-24T10:24:35.719Z,60.70
2018-06-24T10:27:04.262Z,61.40
2018-06-24T10:29:32.885Z,60.60
2018-06-24T10:32:01.432Z,60.70
2018-06-24T10:34:29.987Z,63.00
2018-06-24T10:36:58.740Z,62.00
2018-06-24T10:39:27.302Z,62.30
2018-06-24T10:44:24.120Z,61.30
2018-06-24T10:46:52.668Z,62.00
2018-06-24T10:49:21.354Z,60.10
2018-06-24T10:51:49.968Z,59.50
2018-06-24T10:54:18.517Z,62.90
2018-06-24T10:56:47.093Z,61.70
2018-06-24T10:59:15.698Z,61.90
2018-06-24T11:01:45.748Z,63.50
2018-06-24T11:04:14.321Z,63.10
2018-06-24T11:06:42.878Z,65.40
2018-06-24T11:09:11.856Z,63.80
2018-06-24T11:11:41.627Z,63.50
2018-06-24T11:14:10.172Z,64.20
2018-06-24T11:16:38.775Z,63.90
2018-06-24T11:19:07.350Z,65.60
2018-06-24T11:21:36.324Z,63.70
2018-06-24T11:24:04.982Z,63.10
2018-06-24T11:26:33.611Z,62.90
2018-06-24T11:29:02.742Z,63.40
2018-06-24T11:31:32.259Z,63.30
2018-06-24T11:34:00.910Z,62.10
2018-06-24T11:36:29.491Z,63.10
2018-06-24T11:38:58.062Z,62.30
2018-06-24T11:41:26.606Z,63.60
2018-06-24T11:43:55.167Z,62.90
2018-06-24T11:46:23.718Z,63.90
2018-06-24T11:48:52.649Z,64.30
2018-06-24T11:51:21.191Z,64.40
2018-06-24T11:53:49.988Z,63.80
2018-06-24T11:56:19.191Z,64.90
2018-06-24T11:58:49.099Z,64.30
2018-06-24T12:01:17.712Z,64.30
2018-06-24T12:03:46.258Z,64.20
2018-06-24T12:06:14.861Z,64.20
2018-06-24T12:08:43.387Z,65.60
2018-06-24T12:11:11.983Z,66.70
2018-06-24T12:13:41.617Z,67.20
2018-06-24T12:16:10.155Z,67.10
2018-06-24T12:18:38.769Z,66.90
2018-06-24T12:21:07.342Z,65.40
2018-06-24T12:23:35.985Z,66.30
2018-06-24T12:26:04.813Z,64.80
2018-06-24T12:28:34.695Z,65.70
2018-06-24T12:31:03.257Z,65.10
2018-06-24T12:33:31.820Z,65.30
2018-06-24T12:36:00.403Z,65.20
2018-06-24T12:38:28.991Z,64.70
2018-06-24T12:40:57.532Z,67.20
2018-06-24T12:43:26.159Z,66.30
2018-06-24T12:45:54.663Z,66.50
2018-06-24T12:48:23.178Z,66.70
2018-06-24T12:50:51.746Z,67.10
2018-06-24T12:55:48.486Z,68.50
2018-06-24T12:58:17.164Z,68.70
2018-06-24T13:00:46.398Z,69.30
2018-06-24T13:03:14.518Z,71.40
2018-06-24T13:05:43.143Z,70.40
2018-06-24T13:08:11.667Z,71.80
2018-06-24T13:10:40.195Z,71.70
2018-06-24T13:13:08.779Z,71.70
2018-06-24T13:15:37.949Z,71.80
2018-06-24T13:18:06.875Z,69.10
2018-06-24T13:20:35.681Z,69.20
2018-06-24T13:23:04.379Z,69.40
2018-06-24T13:25:33.823Z,69.30
2018-06-24T13:28:02.551Z,68.30
2018-06-24T13:30:31.585Z,68.40
2018-06-24T13:33:00.846Z,69.10
2018-06-24T13:35:29.406Z,69.00
2018-06-24T13:37:58.055Z,70.30
2018-06-24T13:40:26.786Z,70.30
2018-06-24T13:45:23.614Z,68.70
2018-06-24T13:47:52.942Z,69.50
2018-06-24T13:50:22.009Z,70.40
2018-06-24T13:52:50.783Z,69.60
2018-06-24T13:55:19.329Z,69.40
2018-06-24T13:57:47.870Z,70.00
2018-06-24T14:00:16.921Z,70.80
2018-06-24T14:02:45.929Z,70.80
2018-06-24T14:05:16.290Z,70.20
2018-06-24T14:07:44.851Z,70.00
2018-06-24T14:10:13.604Z,70.70
2018-06-24T14:12:42.160Z,70.80
2018-06-24T14:15:10.736Z,70.10
2018-06-24T14:17:39.281Z,71.20
2018-06-24T14:22:36.320Z,71.80
2018-06-24T14:25:05.351Z,71.50
2018-06-24T14:27:33.910Z,71.30
2018-06-24T14:30:02.768Z,71.70
2018-06-24T14:32:32.354Z,71.40
2018-06-24T14:35:01.172Z,71.50
2018-06-24T14:37:31.147Z,71.70
2018-06-24T14:39:59.713Z,72.20
2018-06-24T14:42:28.250Z,72.70
2018-06-24T14:44:56.844Z,74.60
2018-06-24T14:47:25.750Z,75.20
2018-06-24T14:49:54.374Z,75.80
2018-06-24T14:52:23.351Z,76.40
2018-06-24T14:54:51.953Z,77.50
2018-06-24T14:57:20.863Z,76.80
2018-06-24T14:59:50.457Z,76.90
2018-06-24T15:02:19.243Z,78.10
2018-06-24T15:04:48.114Z,78.40
2018-06-24T15:07:16.827Z,78.50
2018-06-24T15:09:45.630Z,78.70
2018-06-24T15:12:14.334Z,78.90
2018-06-24T15:14:42.926Z,78.80
2018-06-24T15:17:11.519Z,79.00
2018-06-24T15:19:40.131Z,79.40
2018-06-24T15:22:08.882Z,79.10
2018-06-24T15:24:37.447Z,79.00
2018-06-24T15:27:05.997Z,79.20
2018-06-24T15:29:34.535Z,79.50
2018-06-24T15:32:03.098Z,79.40
2018-06-24T15:34:31.642Z,79.50
2018-06-24T15:37:00.177Z,79.80
2018-06-24T15:39:28.706Z,80.70
2018-06-24T15:41:57.265Z,80.80
2018-06-24T15:44:25.790Z,81.40
2018-06-24T15:46:54.422Z,81.90
2018-06-24T15:49:22.976Z,82.60
2018-06-24T15:51:51.542Z,82.20
2018-06-24T15:54:20.071Z,82.30
2018-06-24T15:56:48.665Z,82.10
2018-06-24T15:59:17.258Z,82.30
2018-06-24T16:01:45.847Z,82.30
2018-06-24T16:04:14.377Z,81.40
2018-06-24T16:06:42.935Z,81.90
2018-06-24T16:09:12.957Z,81.80
2018-06-24T16:11:41.498Z,82.10
2018-06-24T16:14:10.035Z,82.40
2018-06-24T16:16:39.039Z,81.70
2018-06-24T16:19:07.829Z,82.30
2018-06-24T16:21:37.846Z,82.50
2018-06-24T16:24:06.508Z,82.70
2018-06-24T16:26:35.068Z,83.10
2018-06-24T16:29:03.664Z,82.70
2018-06-24T16:31:32.217Z,82.30
2018-06-24T16:34:00.845Z,82.10
2018-06-24T16:36:29.395Z,82.80
2018-06-24T16:38:58.049Z,82.90
2018-06-24T16:41:42.917Z,83.70
2018-06-24T16:44:11.889Z,84.00
2018-06-24T16:46:40.922Z,84.90
2018-06-24T16:51:37.718Z,88.60
2018-06-24T16:54:06.317Z,88.80
2018-06-24T16:56:34.896Z,90.00
2018-06-24T16:59:03.524Z,90.30
2018-06-24T17:01:53.175Z,89.20
2018-06-24T17:04:22.100Z,89.30
2018-06-24T17:06:51.220Z,89.50
2018-06-24T17:09:20.018Z,89.10
2018-06-24T17:11:48.574Z,89.00
2018-06-24T17:14:17.112Z,89.40
2018-06-24T17:16:46.367Z,90.00
2018-06-24T17:19:16.820Z,90.70
2018-06-24T17:21:45.692Z,90.70
2018-06-24T17:24:14.296Z,91.20
2018-06-24T17:26:43.475Z,91.60
2018-06-24T17:29:12.029Z,91.70
2018-06-24T17:31:42.618Z,91.50
2018-06-24T17:34:11.153Z,91.60
2018-06-24T17:36:42.991Z,91.60
2018-06-24T17:39:12.763Z,91.50
2018-06-24T17:41:41.763Z,91.20
2018-06-24T17:44:10.359Z,91.20
2018-06-24T17:46:40.822Z,91.10
2018-06-24T17:49:09.587Z,91.30
2018-06-24T17:51:41.902Z,91.10
2018-06-24T17:54:10.420Z,90.90
2018-06-24T17:56:41.783Z,90.60
2018-06-24T17:59:10.322Z,90.70
2018-06-24T18:01:41.767Z,90.70
2018-06-24T18:04:10.705Z,90.60
2018-06-24T18:06:39.249Z,90.50
2018-06-24T18:09:10.507Z,90.50
2018-06-24T18:11:39.344Z,90.00
2018-06-24T18:14:08.162Z,90.00
2018-06-24T18:16:36.762Z,89.30
2018-06-24T18:19:05.511Z,89.90
2018-06-24T18:21:34.074Z,90.00
2018-06-24T18:24:02.653Z,90.10
2018-06-24T18:26:31.231Z,90.20
2018-06-24T18:29:00.695Z,90.10
2018-06-24T18:31:29.247Z,90.10
2018-06-24T18:33:57.850Z,90.30
2018-06-24T18:36:26.447Z,90.10
2018-06-24T18:38:55.769Z,90.40
2018-06-24T18:41:24.388Z,90.30
2018-06-24T18:43:52.931Z,90.60
2018-06-24T18:46:21.638Z,90.40
2018-06-24T18:51:18.579Z,90.80
2018-06-24T18:53:47.189Z,90.80
2018-06-24T18:56:15.704Z,91.00
2018-06-24T18:58:44.270Z,90.80
2018-06-24T19:01:12.842Z,91.00
2018-06-24T19:03:41.492Z,91.20
2018-06-24T19:06:11.635Z,91.40
2018-06-24T19:08:41.120Z,91.50
2018-06-24T19:11:09.669Z,91.60
2018-06-24T19:13:38.262Z,91.60
2018-06-24T19:16:06.861Z,91.70
2018-06-24T19:18:35.503Z,91.70
2018-06-24T19:21:04.102Z,91.80
2018-06-24T19:23:32.752Z,91.80
2018-06-24T19:26:02.324Z,91.90
2018-06-24T19:28:30.870Z,91.60
2018-06-24T19:30:59.451Z,91.80
2018-06-24T19:33:27.960Z,91.80
2018-06-24T19:35:57.897Z,92.00
2018-06-24T19:38:26.401Z,92.30
2018-06-24T19:40:54.926Z,92.40
2018-06-24T19:43:23.440Z,92.50
2018-06-24T19:45:52.070Z,92.50
2018-06-24T19:48:20.627Z,92.60
2018-06-24T19:50:49.722Z,93.00
2018-06-24T19:53:18.286Z,92.60
2018-06-24T19:55:47.638Z,92.40
2018-06-24T19:58:16.162Z,92.20
2018-06-24T20:00:44.714Z,92.30
2018-06-24T20:03:13.300Z,92.20
2018-06-24T20:05:41.843Z,92.00
2018-06-24T20:10:39.241Z,92.10
2018-06-24T20:15:36.038Z,92.20
2018-06-24T20:18:04.596Z,91.90
2018-06-24T20:20:33.138Z,91.90
2018-06-24T20:23:01.663Z,91.80
2018-06-24T20:25:30.732Z,91.90
2018-06-24T20:27:59.296Z,92.00
2018-06-24T20:30:27.831Z,92.00
2018-06-24T20:32:56.357Z,92.10
2018-06-24T20:35:24.964Z,92.40
2018-06-24T20:37:53.546Z,92.60
2018-06-24T20:40:22.241Z,92.50
2018-06-24T20:42:50.977Z,92.50
2018-06-24T20:45:19.566Z,92.30
2018-06-24T20:47:48.118Z,92.10
2018-06-24T20:50:17.451Z,91.90
2018-06-24T20:52:45.974Z,91.90
2018-06-24T20:55:14.552Z,91.80
2018-06-24T20:57:43.138Z,91.90
2018-06-24T21:00:11.707Z,91.70
2018-06-24T21:02:40.261Z,91.70
2018-06-24T21:05:08.815Z,91.90
2018-06-24T21:07:37.375Z,91.50
2018-06-24T21:10:06.159Z,91.70
2018-06-24T21:12:34.931Z,91.40
2018-06-24T21:15:03.519Z,91.80
2018-06-24T21:17:32.335Z,91.70
2018-06-24T21:20:00.876Z,91.70
2018-06-24T21:22:29.439Z,92.20
2018-06-24T21:24:57.996Z,92.20
2018-06-24T21:27:26.531Z,92.20
2018-06-24T21:29:55.087Z,92.30
2018-06-24T21:32:23.606Z,92.70
2018-06-24T21:34:52.146Z,93.20
2018-06-24T21:37:20.687Z,93.20
2018-06-24T21:39:49.218Z,93.60
2018-06-24T21:42:17.727Z,93.70
2018-06-24T21:44:46.279Z,93.80
2018-06-24T21:47:14.821Z,93.80
2018-06-24T21:49:43.360Z,94.00
2018-06-24T21:52:11.919Z,93.70
2018-06-24T21:54:40.449Z,93.50
2018-06-24T21:57:08.990Z,93.70
2018-06-24T21:59:37.514Z,93.80
2018-06-24T22:02:06.583Z,93.80
2018-06-24T22:04:35.176Z,93.70
2018-06-24T22:07:03.729Z,93.60
2018-06-24T22:09:32.342Z,94.00
2018-06-24T22:12:00.913Z,93.60
2018-06-24T22:14:29.474Z,93.60
2018-06-24T22:16:58.071Z,93.70
2018-06-24T22:19:26.658Z,93.60
2018-06-24T22:21:55.856Z,93.60
2018-06-24T22:24:24.433Z,93.70
2018-06-24T22:26:53.730Z,93.30
2018-06-24T22:29:22.257Z,93.50
2018-06-24T22:31:50.826Z,93.40
2018-06-24T22:34:19.385Z,93.60
2018-06-24T22:36:47.971Z,93.70
2018-06-24T22:39:17.250Z,93.80
2018-06-24T22:41:45.848Z,93.70
2018-06-24T22:44:14.390Z,93.60
2018-06-24T22:46:42.976Z,93.70
2018-06-24T22:49:12.446Z,93.60
2018-06-24T22:51:41.052Z,93.80
2018-06-24T22:54:09.632Z,93.70
2018-06-24T22:56:38.270Z,93.50
2018-06-24T22:59:18.038Z,93.40
2018-06-24T23:01:46.600Z,93.40
2018-06-24T23:04:15.847Z,93.70
2018-06-24T23:06:44.461Z,93.60
2018-06-24T23:09:12.989Z,93.80
2018-06-24T23:11:41.539Z,93.60
2018-06-24T23:14:10.090Z,93.90
2018-06-24T23:16:38.702Z,93.90
2018-06-24T23:19:07.239Z,94.20
2018-06-24T23:21:35.758Z,94.20
2018-06-24T23:24:04.358Z,94.20
2018-06-24T23:26:32.990Z,94.10
2018-06-24T23:29:01.618Z,93.80
2018-06-24T23:31:30.157Z,94.10
2018-06-24T23:33:58.725Z,94.10
2018-06-24T23:36:27.268Z,94.20
2018-06-24T23:38:55.895Z,94.30
2018-06-24T23:41:24.424Z,94.50
2018-06-24T23:43:52.986Z,94.60
2018-06-24T23:46:22.181Z,94.60
2018-06-24T23:48:50.714Z,94.80
2018-06-24T23:51:19.280Z,94.90
2018-06-24T23:53:47.852Z,94.60
2018-06-24T23:56:16.431Z,94.30
2018-06-24T23:58:44.992Z,94.70
